Terminal Aerodrome Forecast
Issued by NWS Wilmington, OH

Current Version | Previous Version | Graphics & Text | Print | Product List | Glossary On
Versions: 1 2 3 4 5 6 7 8 9 10 11 12 13 14 15 16 17 18 19
000
FTUS41 KILN 211121
TAFCMH
TAF
KCMH 211121Z 2112/2212 06006KT P6SM VCSH FEW045 BKN060 OVC120
     FM211400 08007KT P6SM VCSH BKN040
     FM211800 12008KT P6SM VCTS BKN040CB
     FM220100 18008KT P6SM VCSH BKN040=

USA.gov is the U.S. government's official web portal to all federal, state and local government web resources and services.